sensor_id;sensor_type;location;lat;lon;timestamp;P1;durP1;ratioP1;P2;durP2;ratioP2
20855;SDS011;63058;49.424;8.420;2022-11-20T00:00:35;14.50;;;11.67;;
20855;SDS011;63058;49.424;8.420;2022-11-20T00:03:01;15.37;;;11.97;;
20855;SDS011;63058;49.424;8.420;2022-11-20T00:05:26;14.17;;;11.43;;
20855;SDS011;63058;49.424;8.420;2022-11-20T00:07:52;15.00;;;11.57;;
20855;SDS011;63058;49.424;8.420;2022-11-20T00:10:18;15.90;;;11.90;;
20855;SDS011;63058;49.424;8.420;2022-11-20T00:12:43;14.57;;;11.17;;
20855;SDS011;63058;49.424;8.420;2022-11-20T00:15:09;14.63;;;11.13;;
20855;SDS011;63058;49.424;8.420;2022-11-20T00:17:35;12.47;;;9.40;;
20855;SDS011;63058;49.424;8.420;2022-11-20T00:20:00;14.03;;;11.10;;
20855;SDS011;63058;49.424;8.420;2022-11-20T00:22:26;14.00;;;11.17;;
20855;SDS011;63058;49.424;8.420;2022-11-20T00:24:52;13.80;;;11.07;;
20855;SDS011;63058;49.424;8.420;2022-11-20T00:27:17;13.50;;;11.03;;
20855;SDS011;63058;49.424;8.420;2022-11-20T00:29:43;13.83;;;10.77;;
20855;SDS011;63058;49.424;8.420;2022-11-20T00:32:08;13.17;;;10.60;;
20855;SDS011;63058;49.424;8.420;2022-11-20T00:34:34;11.53;;;9.17;;
20855;SDS011;63058;49.424;8.420;2022-11-20T00:37:00;13.47;;;10.10;;
20855;SDS011;63058;49.424;8.420;2022-11-20T00:39:25;12.40;;;9.50;;
20855;SDS011;63058;49.424;8.420;2022-11-20T00:41:51;12.77;;;10.90;;
20855;SDS011;63058;49.424;8.420;2022-11-20T00:44:16;12.60;;;10.07;;
20855;SDS011;63058;49.424;8.420;2022-11-20T00:46:42;12.43;;;9.90;;
20855;SDS011;63058;49.424;8.420;2022-11-20T00:49:08;12.47;;;9.53;;
20855;SDS011;63058;49.424;8.420;2022-11-20T00:51:33;12.53;;;10.07;;
20855;SDS011;63058;49.424;8.420;2022-11-20T00:53:59;9.43;;;7.90;;
20855;SDS011;63058;49.424;8.420;2022-11-20T00:56:26;13.07;;;9.73;;
20855;SDS011;63058;49.424;8.420;2022-11-20T00:58:52;11.23;;;9.57;;
20855;SDS011;63058;49.424;8.420;2022-11-20T01:01:19;11.17;;;8.80;;
20855;SDS011;63058;49.424;8.420;2022-11-20T01:03:49;11.20;;;9.63;;
20855;SDS011;63058;49.424;8.420;2022-11-20T01:06:23;11.33;;;9.40;;
20855;SDS011;63058;49.424;8.420;2022-11-20T01:08:52;11.37;;;8.60;;
20855;SDS011;63058;49.424;8.420;2022-11-20T01:11:22;12.67;;;9.37;;
20855;SDS011;63058;49.424;8.420;2022-11-20T01:13:50;12.10;;;9.30;;
20855;SDS011;63058;49.424;8.420;2022-11-20T01:18:51;11.07;;;9.20;;
20855;SDS011;63058;49.424;8.420;2022-11-20T01:21:20;12.20;;;9.80;;
20855;SDS011;63058;49.424;8.420;2022-11-20T01:23:48;10.80;;;9.10;;
20855;SDS011;63058;49.424;8.420;2022-11-20T01:26:21;13.03;;;9.77;;
20855;SDS011;63058;49.424;8.420;2022-11-20T01:28:50;11.23;;;9.23;;
20855;SDS011;63058;49.424;8.420;2022-11-20T01:31:27;10.90;;;8.77;;
20855;SDS011;63058;49.424;8.420;2022-11-20T01:33:58;11.17;;;9.23;;
20855;SDS011;63058;49.424;8.420;2022-11-20T01:36:26;11.50;;;9.33;;
20855;SDS011;63058;49.424;8.420;2022-11-20T01:38:56;13.73;;;10.27;;
20855;SDS011;63058;49.424;8.420;2022-11-20T01:41:24;12.03;;;9.53;;
20855;SDS011;63058;49.424;8.420;2022-11-20T01:44:13;10.93;;;9.40;;
20855;SDS011;63058;49.424;8.420;2022-11-20T01:46:42;11.93;;;9.47;;
20855;SDS011;63058;49.424;8.420;2022-11-20T01:49:24;10.53;;;8.57;;
20855;SDS011;63058;49.424;8.420;2022-11-20T01:51:59;12.03;;;9.57;;
20855;SDS011;63058;49.424;8.420;2022-11-20T01:54:31;14.20;;;10.37;;
20855;SDS011;63058;49.424;8.420;2022-11-20T01:57:03;12.40;;;10.00;;
20855;SDS011;63058;49.424;8.420;2022-11-20T01:59:33;11.93;;;9.53;;
20855;SDS011;63058;49.424;8.420;2022-11-20T02:02:00;12.60;;;9.97;;
20855;SDS011;63058;49.424;8.420;2022-11-20T02:04:26;13.97;;;10.10;;
20855;SDS011;63058;49.424;8.420;2022-11-20T02:06:57;13.23;;;9.73;;
20855;SDS011;63058;49.424;8.420;2022-11-20T02:09:25;12.67;;;10.00;;
20855;SDS011;63058;49.424;8.420;2022-11-20T02:11:52;12.67;;;10.13;;
20855;SDS011;63058;49.424;8.420;2022-11-20T02:14:18;13.10;;;10.53;;
20855;SDS011;63058;49.424;8.420;2022-11-20T02:16:46;12.63;;;10.27;;
20855;SDS011;63058;49.424;8.420;2022-11-20T02:19:17;10.67;;;8.30;;
20855;SDS011;63058;49.424;8.420;2022-11-20T02:21:54;13.47;;;10.63;;
20855;SDS011;63058;49.424;8.420;2022-11-20T02:24:32;14.53;;;11.23;;
20855;SDS011;63058;49.424;8.420;2022-11-20T02:27:14;11.53;;;9.87;;
20855;SDS011;63058;49.424;8.420;2022-11-20T02:29:46;12.63;;;9.67;;
20855;SDS011;63058;49.424;8.420;2022-11-20T02:32:24;12.07;;;9.50;;
20855;SDS011;63058;49.424;8.420;2022-11-20T02:34:52;11.90;;;9.33;;
20855;SDS011;63058;49.424;8.420;2022-11-20T02:37:17;11.33;;;9.07;;
20855;SDS011;63058;49.424;8.420;2022-11-20T02:39:44;11.70;;;9.50;;
20855;SDS011;63058;49.424;8.420;2022-11-20T02:42:12;14.20;;;9.93;;
20855;SDS011;63058;49.424;8.420;2022-11-20T02:44:38;11.23;;;9.03;;
20855;SDS011;63058;49.424;8.420;2022-11-20T02:47:03;12.63;;;9.63;;
20855;SDS011;63058;49.424;8.420;2022-11-20T02:49:29;12.87;;;10.40;;
20855;SDS011;63058;49.424;8.420;2022-11-20T02:51:54;12.40;;;10.07;;
20855;SDS011;63058;49.424;8.420;2022-11-20T02:54:20;10.87;;;8.87;;
20855;SDS011;63058;49.424;8.420;2022-11-20T02:56:46;10.70;;;8.87;;
20855;SDS011;63058;49.424;8.420;2022-11-20T02:59:11;11.90;;;9.33;;
20855;SDS011;63058;49.424;8.420;2022-11-20T03:01:37;12.13;;;9.77;;
20855;SDS011;63058;49.424;8.420;2022-11-20T03:04:02;11.27;;;9.60;;
20855;SDS011;63058;49.424;8.420;2022-11-20T03:06:28;11.67;;;8.93;;
20855;SDS011;63058;49.424;8.420;2022-11-20T03:08:54;13.67;;;10.77;;
20855;SDS011;63058;49.424;8.420;2022-11-20T03:11:19;15.80;;;10.37;;
20855;SDS011;63058;49.424;8.420;2022-11-20T03:13:45;11.87;;;9.80;;
20855;SDS011;63058;49.424;8.420;2022-11-20T03:16:12;13.00;;;9.73;;
20855;SDS011;63058;49.424;8.420;2022-11-20T03:18:40;13.70;;;10.43;;
20855;SDS011;63058;49.424;8.420;2022-11-20T03:21:06;16.87;;;9.77;;
20855;SDS011;63058;49.424;8.420;2022-11-20T03:23:33;12.10;;;10.40;;
20855;SDS011;63058;49.424;8.420;2022-11-20T03:28:46;12.70;;;9.93;;
20855;SDS011;63058;49.424;8.420;2022-11-20T03:31:14;12.43;;;9.40;;
20855;SDS011;63058;49.424;8.420;2022-11-20T03:33:41;11.60;;;9.73;;
20855;SDS011;63058;49.424;8.420;2022-11-20T03:36:08;12.27;;;9.93;;
20855;SDS011;63058;49.424;8.420;2022-11-20T03:38:35;11.73;;;9.40;;
20855;SDS011;63058;49.424;8.420;2022-11-20T03:41:02;12.90;;;10.07;;
20855;SDS011;63058;49.424;8.420;2022-11-20T03:43:29;11.80;;;9.30;;
20855;SDS011;63058;49.424;8.420;2022-11-20T03:45:55;15.17;;;11.90;;
20855;SDS011;63058;49.424;8.420;2022-11-20T03:48:21;15.13;;;12.00;;
20855;SDS011;63058;49.424;8.420;2022-11-20T03:50:46;14.83;;;11.43;;
20855;SDS011;63058;49.424;8.420;2022-11-20T03:53:12;12.87;;;10.00;;
20855;SDS011;63058;49.424;8.420;2022-11-20T03:55:39;12.67;;;9.93;;
20855;SDS011;63058;49.424;8.420;2022-11-20T03:58:04;12.93;;;9.63;;
20855;SDS011;63058;49.424;8.420;2022-11-20T04:00:30;10.07;;;8.90;;
20855;SDS011;63058;49.424;8.420;2022-11-20T04:02:58;11.50;;;8.37;;
20855;SDS011;63058;49.424;8.420;2022-11-20T04:05:24;11.17;;;9.20;;
20855;SDS011;63058;49.424;8.420;2022-11-20T04:07:50;13.33;;;10.40;;
20855;SDS011;63058;49.424;8.420;2022-11-20T04:10:16;10.60;;;8.97;;
20855;SDS011;63058;49.424;8.420;2022-11-20T04:12:42;10.73;;;9.17;;
20855;SDS011;63058;49.424;8.420;2022-11-20T04:15:07;13.53;;;10.17;;
20855;SDS011;63058;49.424;8.420;2022-11-20T04:17:33;11.67;;;9.17;;
20855;SDS011;63058;49.424;8.420;2022-11-20T04:19:59;12.50;;;9.83;;
20855;SDS011;63058;49.424;8.420;2022-11-20T04:22:24;12.17;;;9.40;;
20855;SDS011;63058;49.424;8.420;2022-11-20T04:24:50;10.87;;;9.20;;
20855;SDS011;63058;49.424;8.420;2022-11-20T04:27:17;10.60;;;8.60;;
20855;SDS011;63058;49.424;8.420;2022-11-20T04:29:42;11.83;;;9.20;;
20855;SDS011;63058;49.424;8.420;2022-11-20T04:32:08;14.10;;;10.03;;
20855;SDS011;63058;49.424;8.420;2022-11-20T04:34:33;11.17;;;8.63;;
20855;SDS011;63058;49.424;8.420;2022-11-20T04:37:00;11.33;;;9.50;;
20855;SDS011;63058;49.424;8.420;2022-11-20T04:39:25;12.87;;;9.97;;
20855;SDS011;63058;49.424;8.420;2022-11-20T04:41:51;11.30;;;9.27;;
20855;SDS011;63058;49.424;8.420;2022-11-20T04:44:39;11.70;;;9.07;;
20855;SDS011;63058;49.424;8.420;2022-11-20T04:47:05;13.33;;;9.00;;
20855;SDS011;63058;49.424;8.420;2022-11-20T04:49:31;12.80;;;10.17;;
20855;SDS011;63058;49.424;8.420;2022-11-20T04:51:57;11.77;;;9.67;;
20855;SDS011;63058;49.424;8.420;2022-11-20T04:54:23;11.33;;;9.50;;
20855;SDS011;63058;49.424;8.420;2022-11-20T04:56:48;12.03;;;9.50;;
20855;SDS011;63058;49.424;8.420;2022-11-20T04:59:15;11.33;;;8.97;;
20855;SDS011;63058;49.424;8.420;2022-11-20T05:01:41;11.40;;;8.80;;
20855;SDS011;63058;49.424;8.420;2022-11-20T05:04:06;11.67;;;9.17;;
20855;SDS011;63058;49.424;8.420;2022-11-20T05:06:32;11.07;;;9.07;;
20855;SDS011;63058;49.424;8.420;2022-11-20T05:08:58;11.27;;;8.67;;
20855;SDS011;63058;49.424;8.420;2022-11-20T05:11:24;11.57;;;9.00;;
20855;SDS011;63058;49.424;8.420;2022-11-20T05:13:50;9.90;;;8.17;;
20855;SDS011;63058;49.424;8.420;2022-11-20T05:16:17;9.17;;;7.73;;
20855;SDS011;63058;49.424;8.420;2022-11-20T05:18:44;10.60;;;8.60;;
20855;SDS011;63058;49.424;8.420;2022-11-20T05:21:10;9.57;;;7.67;;
20855;SDS011;63058;49.424;8.420;2022-11-20T05:23:37;11.10;;;8.53;;
20855;SDS011;63058;49.424;8.420;2022-11-20T05:26:04;9.97;;;8.50;;
20855;SDS011;63058;49.424;8.420;2022-11-20T05:28:31;11.67;;;9.07;;
20855;SDS011;63058;49.424;8.420;2022-11-20T05:31:11;11.60;;;9.40;;
20855;SDS011;63058;49.424;8.420;2022-11-20T05:33:42;11.80;;;9.80;;
20855;SDS011;63058;49.424;8.420;2022-11-20T05:36:09;13.67;;;10.40;;
20855;SDS011;63058;49.424;8.420;2022-11-20T05:38:36;11.07;;;8.90;;
20855;SDS011;63058;49.424;8.420;2022-11-20T05:41:03;13.17;;;10.40;;
20855;SDS011;63058;49.424;8.420;2022-11-20T05:43:33;11.50;;;8.83;;
20855;SDS011;63058;49.424;8.420;2022-11-20T05:46:00;11.60;;;9.20;;
20855;SDS011;63058;49.424;8.420;2022-11-20T05:48:26;10.47;;;8.80;;
20855;SDS011;63058;49.424;8.420;2022-11-20T05:50:52;11.60;;;9.30;;
20855;SDS011;63058;49.424;8.420;2022-11-20T05:53:17;11.33;;;9.00;;
20855;SDS011;63058;49.424;8.420;2022-11-20T05:55:43;8.70;;;7.50;;
20855;SDS011;63058;49.424;8.420;2022-11-20T05:58:08;9.80;;;8.03;;
20855;SDS011;63058;49.424;8.420;2022-11-20T06:00:34;10.27;;;8.20;;
20855;SDS011;63058;49.424;8.420;2022-11-20T06:03:00;10.90;;;8.67;;
20855;SDS011;63058;49.424;8.420;2022-11-20T06:05:26;10.13;;;7.97;;
20855;SDS011;63058;49.424;8.420;2022-11-20T06:07:51;9.13;;;7.10;;
20855;SDS011;63058;49.424;8.420;2022-11-20T06:10:17;8.80;;;7.07;;
20855;SDS011;63058;49.424;8.420;2022-11-20T06:12:42;9.83;;;8.37;;
20855;SDS011;63058;49.424;8.420;2022-11-20T06:15:08;11.07;;;8.17;;
20855;SDS011;63058;49.424;8.420;2022-11-20T06:17:34;9.60;;;7.83;;
20855;SDS011;63058;49.424;8.420;2022-11-20T06:20:00;10.03;;;7.73;;
20855;SDS011;63058;49.424;8.420;2022-11-20T06:22:26;8.70;;;6.67;;
20855;SDS011;63058;49.424;8.420;2022-11-20T06:24:51;10.37;;;7.80;;
20855;SDS011;63058;49.424;8.420;2022-11-20T06:27:17;9.23;;;7.27;;
20855;SDS011;63058;49.424;8.420;2022-11-20T06:29:42;11.80;;;9.50;;
20855;SDS011;63058;49.424;8.420;2022-11-20T06:32:08;11.57;;;8.70;;
20855;SDS011;63058;49.424;8.420;2022-11-20T06:34:33;11.03;;;8.57;;
20855;SDS011;63058;49.424;8.420;2022-11-20T06:36:59;9.47;;;7.80;;
20855;SDS011;63058;49.424;8.420;2022-11-20T06:39:25;10.10;;;8.37;;
20855;SDS011;63058;49.424;8.420;2022-11-20T06:41:50;12.33;;;8.30;;
20855;SDS011;63058;49.424;8.420;2022-11-20T06:44:16;9.67;;;8.07;;
20855;SDS011;63058;49.424;8.420;2022-11-20T06:46:41;10.90;;;8.53;;
20855;SDS011;63058;49.424;8.420;2022-11-20T06:49:07;12.27;;;9.67;;
20855;SDS011;63058;49.424;8.420;2022-11-20T06:51:32;11.87;;;9.73;;
20855;SDS011;63058;49.424;8.420;2022-11-20T06:53:58;12.40;;;9.53;;
20855;SDS011;63058;49.424;8.420;2022-11-20T06:56:23;12.10;;;9.10;;
20855;SDS011;63058;49.424;8.420;2022-11-20T06:58:49;11.47;;;9.27;;
20855;SDS011;63058;49.424;8.420;2022-11-20T07:01:14;11.57;;;8.73;;
20855;SDS011;63058;49.424;8.420;2022-11-20T07:03:40;10.53;;;8.63;;
20855;SDS011;63058;49.424;8.420;2022-11-20T07:06:07;11.07;;;8.53;;
20855;SDS011;63058;49.424;8.420;2022-11-20T07:08:33;9.40;;;8.17;;
20855;SDS011;63058;49.424;8.420;2022-11-20T07:11:00;10.63;;;8.63;;
20855;SDS011;63058;49.424;8.420;2022-11-20T07:13:27;10.87;;;8.87;;
20855;SDS011;63058;49.424;8.420;2022-11-20T07:15:54;11.10;;;8.70;;
20855;SDS011;63058;49.424;8.420;2022-11-20T07:18:20;14.50;;;11.17;;
20855;SDS011;63058;49.424;8.420;2022-11-20T07:20:45;11.13;;;9.10;;
20855;SDS011;63058;49.424;8.420;2022-11-20T07:23:11;11.33;;;9.37;;
20855;SDS011;63058;49.424;8.420;2022-11-20T07:25:36;11.43;;;9.70;;
20855;SDS011;63058;49.424;8.420;2022-11-20T07:28:02;10.73;;;9.03;;
20855;SDS011;63058;49.424;8.420;2022-11-20T07:30:29;11.23;;;8.90;;
20855;SDS011;63058;49.424;8.420;2022-11-20T07:32:55;12.03;;;9.10;;
20855;SDS011;63058;49.424;8.420;2022-11-20T07:35:22;12.07;;;9.80;;
20855;SDS011;63058;49.424;8.420;2022-11-20T07:37:48;11.53;;;9.33;;
20855;SDS011;63058;49.424;8.420;2022-11-20T07:40:14;11.00;;;8.97;;
20855;SDS011;63058;49.424;8.420;2022-11-20T07:42:50;10.93;;;8.30;;
20855;SDS011;63058;49.424;8.420;2022-11-20T07:45:18;10.73;;;8.63;;
20855;SDS011;63058;49.424;8.420;2022-11-20T07:47:44;11.37;;;9.13;;
20855;SDS011;63058;49.424;8.420;2022-11-20T07:50:10;12.17;;;10.13;;
20855;SDS011;63058;49.424;8.420;2022-11-20T07:52:36;9.27;;;7.80;;
20855;SDS011;63058;49.424;8.420;2022-11-20T07:55:01;10.87;;;8.70;;
20855;SDS011;63058;49.424;8.420;2022-11-20T07:57:27;11.67;;;9.10;;
20855;SDS011;63058;49.424;8.420;2022-11-20T07:59:53;12.93;;;9.57;;
20855;SDS011;63058;49.424;8.420;2022-11-20T08:02:18;10.83;;;8.90;;
20855;SDS011;63058;49.424;8.420;2022-11-20T08:04:44;11.07;;;9.33;;
20855;SDS011;63058;49.424;8.420;2022-11-20T08:07:09;11.57;;;9.30;;
20855;SDS011;63058;49.424;8.420;2022-11-20T08:09:35;12.50;;;9.67;;
20855;SDS011;63058;49.424;8.420;2022-11-20T08:12:00;11.37;;;8.70;;
20855;SDS011;63058;49.424;8.420;2022-11-20T08:14:44;13.10;;;10.30;;
20855;SDS011;63058;49.424;8.420;2022-11-20T08:17:10;15.23;;;11.57;;
20855;SDS011;63058;49.424;8.420;2022-11-20T08:19:36;13.60;;;10.85;;
20855;SDS011;63058;49.424;8.420;2022-11-20T08:22:01;12.27;;;10.17;;
20855;SDS011;63058;49.424;8.420;2022-11-20T08:24:27;14.93;;;11.77;;
20855;SDS011;63058;49.424;8.420;2022-11-20T08:26:52;14.33;;;11.30;;
20855;SDS011;63058;49.424;8.420;2022-11-20T08:29:18;13.07;;;10.60;;
20855;SDS011;63058;49.424;8.420;2022-11-20T08:31:43;13.10;;;10.38;;
20855;SDS011;63058;49.424;8.420;2022-11-20T08:34:09;12.70;;;10.07;;
20855;SDS011;63058;49.424;8.420;2022-11-20T08:36:35;12.80;;;10.10;;
20855;SDS011;63058;49.424;8.420;2022-11-20T08:39:01;13.40;;;10.50;;
20855;SDS011;63058;49.424;8.420;2022-11-20T08:41:28;12.73;;;10.30;;
20855;SDS011;63058;49.424;8.420;2022-11-20T08:44:00;11.88;;;9.15;;
20855;SDS011;63058;49.424;8.420;2022-11-20T08:46:34;13.03;;;9.90;;
20855;SDS011;63058;49.424;8.420;2022-11-20T08:49:14;11.47;;;9.20;;
20855;SDS011;63058;49.424;8.420;2022-11-20T08:51:41;13.68;;;9.30;;
20855;SDS011;63058;49.424;8.420;2022-11-20T08:54:07;11.50;;;8.87;;
20855;SDS011;63058;49.424;8.420;2022-11-20T08:56:33;11.20;;;9.07;;
20855;SDS011;63058;49.424;8.420;2022-11-20T08:58:59;14.23;;;9.37;;
20855;SDS011;63058;49.424;8.420;2022-11-20T09:01:25;12.40;;;9.67;;
20855;SDS011;63058;49.424;8.420;2022-11-20T09:03:51;11.57;;;9.35;;
20855;SDS011;63058;49.424;8.420;2022-11-20T09:06:16;13.13;;;10.35;;
20855;SDS011;63058;49.424;8.420;2022-11-20T09:08:42;12.23;;;9.73;;
20855;SDS011;63058;49.424;8.420;2022-11-20T09:11:08;12.93;;;9.93;;
20855;SDS011;63058;49.424;8.420;2022-11-20T09:13:34;10.43;;;8.60;;
20855;SDS011;63058;49.424;8.420;2022-11-20T09:16:02;12.13;;;9.73;;
20855;SDS011;63058;49.424;8.420;2022-11-20T09:18:30;13.53;;;10.00;;
20855;SDS011;63058;49.424;8.420;2022-11-20T09:21:01;12.88;;;10.20;;
20855;SDS011;63058;49.424;8.420;2022-11-20T09:23:33;12.13;;;9.37;;
20855;SDS011;63058;49.424;8.420;2022-11-20T09:26:03;12.40;;;9.43;;
20855;SDS011;63058;49.424;8.420;2022-11-20T09:28:30;13.23;;;10.13;;
20855;SDS011;63058;49.424;8.420;2022-11-20T09:30:55;13.02;;;10.07;;
20855;SDS011;63058;49.424;8.420;2022-11-20T09:33:21;16.92;;;11.93;;
20855;SDS011;63058;49.424;8.420;2022-11-20T09:35:49;16.90;;;11.88;;
20855;SDS011;63058;49.424;8.420;2022-11-20T09:38:15;15.82;;;12.15;;
20855;SDS011;63058;49.424;8.420;2022-11-20T09:40:44;14.40;;;10.80;;
20855;SDS011;63058;49.424;8.420;2022-11-20T09:46:15;15.35;;;12.05;;
20855;SDS011;63058;49.424;8.420;2022-11-20T09:51:35;13.73;;;11.17;;
20855;SDS011;63058;49.424;8.420;2022-11-20T09:54:18;13.37;;;10.73;;
20855;SDS011;63058;49.424;8.420;2022-11-20T09:56:50;16.90;;;11.82;;
20855;SDS011;63058;49.424;8.420;2022-11-20T09:59:46;13.57;;;10.33;;
20855;SDS011;63058;49.424;8.420;2022-11-20T10:02:40;14.10;;;10.27;;
20855;SDS011;63058;49.424;8.420;2022-11-20T10:05:36;13.70;;;10.03;;
20855;SDS011;63058;49.424;8.420;2022-11-20T10:08:16;13.57;;;10.73;;
20855;SDS011;63058;49.424;8.420;2022-11-20T10:11:03;13.63;;;10.33;;
20855;SDS011;63058;49.424;8.420;2022-11-20T10:21:44;14.43;;;10.97;;
20855;SDS011;63058;49.424;8.420;2022-11-20T10:27:27;15.07;;;11.35;;
20855;SDS011;63058;49.424;8.420;2022-11-20T10:30:03;15.98;;;12.32;;
20855;SDS011;63058;49.424;8.420;2022-11-20T10:32:38;13.45;;;10.88;;
20855;SDS011;63058;49.424;8.420;2022-11-20T10:35:22;13.77;;;10.40;;
20855;SDS011;63058;49.424;8.420;2022-11-20T10:37:58;13.63;;;10.60;;
20855;SDS011;63058;49.424;8.420;2022-11-20T10:40:38;15.23;;;11.00;;
20855;SDS011;63058;49.424;8.420;2022-11-20T10:48:30;14.00;;;10.88;;
20855;SDS011;63058;49.424;8.420;2022-11-20T10:56:51;15.03;;;10.37;;
20855;SDS011;63058;49.424;8.420;2022-11-20T11:02:14;13.60;;;10.68;;
20855;SDS011;63058;49.424;8.420;2022-11-20T11:04:49;17.23;;;12.55;;
20855;SDS011;63058;49.424;8.420;2022-11-20T11:07:23;16.67;;;12.25;;
20855;SDS011;63058;49.424;8.420;2022-11-20T11:09:58;18.23;;;12.70;;
20855;SDS011;63058;49.424;8.420;2022-11-20T11:12:25;18.67;;;13.60;;
20855;SDS011;63058;49.424;8.420;2022-11-20T11:14:53;18.58;;;12.35;;
20855;SDS011;63058;49.424;8.420;2022-11-20T11:20:14;17.85;;;12.80;;
20855;SDS011;63058;49.424;8.420;2022-11-20T11:22:43;16.20;;;11.93;;
20855;SDS011;63058;49.424;8.420;2022-11-20T11:25:27;16.08;;;11.00;;
20855;SDS011;63058;49.424;8.420;2022-11-20T11:28:03;14.77;;;11.57;;
20855;SDS011;63058;49.424;8.420;2022-11-20T11:30:44;15.10;;;11.85;;
20855;SDS011;63058;49.424;8.420;2022-11-20T11:33:11;18.08;;;12.77;;
20855;SDS011;63058;49.424;8.420;2022-11-20T11:35:45;15.35;;;11.10;;
20855;SDS011;63058;49.424;8.420;2022-11-20T11:38:19;15.57;;;11.77;;
20855;SDS011;63058;49.424;8.420;2022-11-20T11:40:48;13.50;;;10.80;;
20855;SDS011;63058;49.424;8.420;2022-11-20T11:43:19;12.32;;;8.75;;
20855;SDS011;63058;49.424;8.420;2022-11-20T11:57:29;5.68;;;4.95;;
20855;SDS011;63058;49.424;8.420;2022-11-20T12:00:09;5.45;;;4.55;;
20855;SDS011;63058;49.424;8.420;2022-11-20T12:05:18;5.10;;;3.75;;
20855;SDS011;63058;49.424;8.420;2022-11-20T12:07:59;5.45;;;3.88;;
20855;SDS011;63058;49.424;8.420;2022-11-20T12:16:03;3.50;;;1.92;;
20855;SDS011;63058;49.424;8.420;2022-11-20T12:18:29;2.88;;;1.35;;
20855;SDS011;63058;49.424;8.420;2022-11-20T12:20:59;2.55;;;1.13;;
20855;SDS011;63058;49.424;8.420;2022-11-20T12:23:35;2.13;;;1.30;;
20855;SDS011;63058;49.424;8.420;2022-11-20T12:29:09;2.47;;;1.10;;
20855;SDS011;63058;49.424;8.420;2022-11-20T12:44:10;1.70;;;1.02;;
20855;SDS011;63058;49.424;8.420;2022-11-20T12:52:56;4.38;;;1.60;;
20855;SDS011;63058;49.424;8.420;2022-11-20T12:55:36;3.45;;;1.40;;
20855;SDS011;63058;49.424;8.420;2022-11-20T13:01:05;4.22;;;1.38;;
20855;SDS011;63058;49.424;8.420;2022-11-20T13:07:09;10.48;;;8.57;;
20855;SDS011;63058;49.424;8.420;2022-11-20T13:09:44;7.10;;;4.28;;
20855;SDS011;63058;49.424;8.420;2022-11-20T13:12:36;12.43;;;8.40;;
20855;SDS011;63058;49.424;8.420;2022-11-20T13:15:18;11.73;;;6.25;;
20855;SDS011;63058;49.424;8.420;2022-11-20T13:17:57;9.50;;;5.55;;
20855;SDS011;63058;49.424;8.420;2022-11-20T13:20:25;8.20;;;4.80;;
20855;SDS011;63058;49.424;8.420;2022-11-20T13:22:53;7.03;;;3.97;;
20855;SDS011;63058;49.424;8.420;2022-11-20T13:28:00;19.15;;;14.20;;
20855;SDS011;63058;49.424;8.420;2022-11-20T13:30:50;7.95;;;4.63;;
20855;SDS011;63058;49.424;8.420;2022-11-20T13:36:34;3.60;;;1.52;;
20855;SDS011;63058;49.424;8.420;2022-11-20T13:38:52;5.43;;;1.50;;
20855;SDS011;63058;49.424;8.420;2022-11-20T13:41:38;2.03;;;1.05;;
20855;SDS011;63058;49.424;8.420;2022-11-20T13:44:08;4.93;;;1.20;;
20855;SDS011;63058;49.424;8.420;2022-11-20T13:46:44;1.85;;;1.10;;
20855;SDS011;63058;49.424;8.420;2022-11-20T13:49:30;1.77;;;1.10;;
20855;SDS011;63058;49.424;8.420;2022-11-20T14:00:20;14.68;;;13.13;;
20855;SDS011;63058;49.424;8.420;2022-11-20T14:03:01;6.25;;;3.63;;
20855;SDS011;63058;49.424;8.420;2022-11-20T14:05:30;5.95;;;2.58;;
20855;SDS011;63058;49.424;8.420;2022-11-20T14:08:06;7.45;;;5.28;;
20855;SDS011;63058;49.424;8.420;2022-11-20T14:10:38;14.43;;;10.98;;
20855;SDS011;63058;49.424;8.420;2022-11-20T14:13:12;12.30;;;9.45;;
20855;SDS011;63058;49.424;8.420;2022-11-20T14:15:42;22.98;;;19.33;;
20855;SDS011;63058;49.424;8.420;2022-11-20T14:18:18;21.77;;;19.48;;
20855;SDS011;63058;49.424;8.420;2022-11-20T14:20:46;19.42;;;17.25;;
20855;SDS011;63058;49.424;8.420;2022-11-20T14:23:12;11.55;;;8.93;;
20855;SDS011;63058;49.424;8.420;2022-11-20T14:25:49;5.70;;;4.50;;
20855;SDS011;63058;49.424;8.420;2022-11-20T14:28:25;4.60;;;3.03;;
20855;SDS011;63058;49.424;8.420;2022-11-20T14:30:52;9.18;;;6.13;;
20855;SDS011;63058;49.424;8.420;2022-11-20T14:33:18;8.40;;;5.57;;
20855;SDS011;63058;49.424;8.420;2022-11-20T14:35:49;6.57;;;4.35;;
20855;SDS011;63058;49.424;8.420;2022-11-20T14:38:21;3.45;;;2.10;;
20855;SDS011;63058;49.424;8.420;2022-11-20T14:40:50;3.25;;;1.35;;
20855;SDS011;63058;49.424;8.420;2022-11-20T14:43:20;8.65;;;6.05;;
20855;SDS011;63058;49.424;8.420;2022-11-20T14:46:04;6.57;;;5.20;;
20855;SDS011;63058;49.424;8.420;2022-11-20T14:48:33;81.40;;;73.25;;
20855;SDS011;63058;49.424;8.420;2022-11-20T14:51:03;146.73;;;130.68;;
20855;SDS011;63058;49.424;8.420;2022-11-20T14:53:29;63.70;;;56.55;;
20855;SDS011;63058;49.424;8.420;2022-11-20T14:55:56;35.03;;;31.35;;
20855;SDS011;63058;49.424;8.420;2022-11-20T14:58:27;22.38;;;19.40;;
20855;SDS011;63058;49.424;8.420;2022-11-20T15:01:05;16.45;;;13.18;;
20855;SDS011;63058;49.424;8.420;2022-11-20T15:03:39;14.23;;;10.80;;
20855;SDS011;63058;49.424;8.420;2022-11-20T15:06:06;143.77;;;90.32;;
20855;SDS011;63058;49.424;8.420;2022-11-20T15:08:35;80.53;;;51.70;;
20855;SDS011;63058;49.424;8.420;2022-11-20T15:11:01;125.22;;;111.95;;
20855;SDS011;63058;49.424;8.420;2022-11-20T15:13:31;68.57;;;56.70;;
20855;SDS011;63058;49.424;8.420;2022-11-20T15:16:00;34.80;;;28.75;;
20855;SDS011;63058;49.424;8.420;2022-11-20T15:18:28;26.65;;;20.25;;
20855;SDS011;63058;49.424;8.420;2022-11-20T15:21:02;15.05;;;12.07;;
20855;SDS011;63058;49.424;8.420;2022-11-20T15:23:29;10.27;;;8.05;;
20855;SDS011;63058;49.424;8.420;2022-11-20T15:25:54;13.57;;;9.70;;
20855;SDS011;63058;49.424;8.420;2022-11-20T15:28:29;14.65;;;10.93;;
20855;SDS011;63058;49.424;8.420;2022-11-20T15:30:56;10.38;;;6.97;;
20855;SDS011;63058;49.424;8.420;2022-11-20T15:33:22;6.57;;;4.40;;
20855;SDS011;63058;49.424;8.420;2022-11-20T15:35:48;6.70;;;4.53;;
20855;SDS011;63058;49.424;8.420;2022-11-20T15:38:13;4.85;;;3.60;;
20855;SDS011;63058;49.424;8.420;2022-11-20T15:40:39;8.02;;;4.43;;
20855;SDS011;63058;49.424;8.420;2022-11-20T15:43:05;8.13;;;4.72;;
20855;SDS011;63058;49.424;8.420;2022-11-20T15:45:39;6.78;;;4.38;;
20855;SDS011;63058;49.424;8.420;2022-11-20T15:48:12;4.57;;;2.78;;
20855;SDS011;63058;49.424;8.420;2022-11-20T15:50:51;3.88;;;2.38;;
20855;SDS011;63058;49.424;8.420;2022-11-20T15:53:38;3.15;;;1.80;;
20855;SDS011;63058;49.424;8.420;2022-11-20T15:56:05;3.38;;;1.55;;
20855;SDS011;63058;49.424;8.420;2022-11-20T15:58:34;3.13;;;1.80;;
20855;SDS011;63058;49.424;8.420;2022-11-20T16:00:59;3.17;;;1.58;;
20855;SDS011;63058;49.424;8.420;2022-11-20T16:03:25;2.72;;;1.30;;
20855;SDS011;63058;49.424;8.420;2022-11-20T16:05:50;2.85;;;1.17;;
20855;SDS011;63058;49.424;8.420;2022-11-20T16:08:17;3.13;;;1.35;;
20855;SDS011;63058;49.424;8.420;2022-11-20T16:10:44;3.53;;;1.50;;
20855;SDS011;63058;49.424;8.420;2022-11-20T16:13:13;2.65;;;1.25;;
20855;SDS011;63058;49.424;8.420;2022-11-20T16:16:01;2.53;;;1.73;;
20855;SDS011;63058;49.424;8.420;2022-11-20T16:18:31;3.63;;;1.90;;
20855;SDS011;63058;49.424;8.420;2022-11-20T16:20:59;2.35;;;1.10;;
20855;SDS011;63058;49.424;8.420;2022-11-20T16:23:25;3.67;;;1.38;;
20855;SDS011;63058;49.424;8.420;2022-11-20T16:26:08;2.85;;;1.48;;